Terminal Aerodrome Forecast
Issued by NWS Boise, ID

Home | Current Version | Previous Version | Text Only | Print | Product List | Glossary On
Versions: 1 2 3 4 5 6 7 8 9 10 11 12 13 14 15 16 17
000
FTUS45 KBOI 251138
TAFBOI
TAF
KBOI 251138Z 2512/2612 13006KT P6SM SKC
     FM251800 VRB06KT P6SM SCT120
     FM260200 13006KT P6SM BKN100=

USA.gov is the U.S. government's official web portal to all federal, state and local government web resources and services.